sensor_id;sensor_type;location;lat;lon;timestamp;temperature;humidity
24412;DHT22;12544;46.760;15.942;2023-04-21T00:02:06;7.80;99.90
24412;DHT22;12544;46.760;15.942;2023-04-21T00:04:32;7.70;99.90
24412;DHT22;12544;46.760;15.942;2023-04-21T00:06:57;7.60;99.90
24412;DHT22;12544;46.760;15.942;2023-04-21T00:09:28;7.60;99.90
24412;DHT22;12544;46.760;15.942;2023-04-21T00:11:53;7.40;99.90
24412;DHT22;12544;46.760;15.942;2023-04-21T00:14:19;7.50;99.90
24412;DHT22;12544;46.760;15.942;2023-04-21T00:16:49;7.50;99.90
24412;DHT22;12544;46.760;15.942;2023-04-21T00:19:17;7.50;99.90
24412;DHT22;12544;46.760;15.942;2023-04-21T00:21:44;7.40;99.90
24412;DHT22;12544;46.760;15.942;2023-04-21T00:24:10;7.40;99.90
24412;DHT22;12544;46.760;15.942;2023-04-21T00:26:36;7.30;99.90
24412;DHT22;12544;46.760;15.942;2023-04-21T00:29:01;7.20;99.90
24412;DHT22;12544;46.760;15.942;2023-04-21T00:31:28;7.20;99.90
24412;DHT22;12544;46.760;15.942;2023-04-21T00:33:53;7.20;99.90
24412;DHT22;12544;46.760;15.942;2023-04-21T00:36:20;7.20;99.90
24412;DHT22;12544;46.760;15.942;2023-04-21T00:38:46;7.20;99.90
24412;DHT22;12544;46.760;15.942;2023-04-21T00:41:11;7.30;99.90
24412;DHT22;12544;46.760;15.942;2023-04-21T00:43:37;7.30;99.90
24412;DHT22;12544;46.760;15.942;2023-04-21T00:46:22;7.40;99.90
24412;DHT22;12544;46.760;15.942;2023-04-21T00:48:48;7.50;99.90
24412;DHT22;12544;46.760;15.942;2023-04-21T00:51:14;7.50;99.90
24412;DHT22;12544;46.760;15.942;2023-04-21T00:53:39;7.60;99.90
24412;DHT22;12544;46.760;15.942;2023-04-21T00:56:05;7.70;99.90
24412;DHT22;12544;46.760;15.942;2023-04-21T00:58:31;7.70;99.90
24412;DHT22;12544;46.760;15.942;2023-04-21T01:00:58;7.60;99.90
24412;DHT22;12544;46.760;15.942;2023-04-21T01:03:24;7.50;99.90
24412;DHT22;12544;46.760;15.942;2023-04-21T01:05:49;7.40;99.90
24412;DHT22;12544;46.760;15.942;2023-04-21T01:08:15;7.30;99.90
24412;DHT22;12544;46.760;15.942;2023-04-21T01:10:41;7.20;99.90
24412;DHT22;12544;46.760;15.942;2023-04-21T01:13:07;7.20;99.90
24412;DHT22;12544;46.760;15.942;2023-04-21T01:15:32;7.20;99.90
24412;DHT22;12544;46.760;15.942;2023-04-21T01:17:58;7.10;99.90
24412;DHT22;12544;46.760;15.942;2023-04-21T01:20:23;7.10;99.90
24412;DHT22;12544;46.760;15.942;2023-04-21T01:22:49;7.10;99.90
24412;DHT22;12544;46.760;15.942;2023-04-21T01:25:16;7.20;99.90
24412;DHT22;12544;46.760;15.942;2023-04-21T01:27:43;7.20;99.90
24412;DHT22;12544;46.760;15.942;2023-04-21T01:30:09;7.10;99.90
24412;DHT22;12544;46.760;15.942;2023-04-21T01:32:35;7.10;99.90
24412;DHT22;12544;46.760;15.942;2023-04-21T01:35:01;7.00;99.90
24412;DHT22;12544;46.760;15.942;2023-04-21T01:37:30;6.90;99.90
24412;DHT22;12544;46.760;15.942;2023-04-21T01:39:57;6.80;99.90
24412;DHT22;12544;46.760;15.942;2023-04-21T01:42:26;6.80;99.90
24412;DHT22;12544;46.760;15.942;2023-04-21T01:44:53;6.80;99.90
24412;DHT22;12544;46.760;15.942;2023-04-21T01:47:19;6.70;99.90
24412;DHT22;12544;46.760;15.942;2023-04-21T01:49:45;6.70;99.90
24412;DHT22;12544;46.760;15.942;2023-04-21T01:52:11;6.70;99.90
24412;DHT22;12544;46.760;15.942;2023-04-21T01:54:36;6.70;99.90
24412;DHT22;12544;46.760;15.942;2023-04-21T01:57:02;6.60;99.90
24412;DHT22;12544;46.760;15.942;2023-04-21T01:59:28;6.60;99.90
24412;DHT22;12544;46.760;15.942;2023-04-21T02:01:54;6.60;99.90
24412;DHT22;12544;46.760;15.942;2023-04-21T02:04:19;6.70;99.90
24412;DHT22;12544;46.760;15.942;2023-04-21T02:06:45;6.70;99.90
24412;DHT22;12544;46.760;15.942;2023-04-21T02:09:11;6.70;99.90
24412;DHT22;12544;46.760;15.942;2023-04-21T02:11:36;6.70;99.90
24412;DHT22;12544;46.760;15.942;2023-04-21T02:14:02;6.80;99.90
24412;DHT22;12544;46.760;15.942;2023-04-21T02:16:28;6.80;99.90
24412;DHT22;12544;46.760;15.942;2023-04-21T02:18:55;6.70;99.90
24412;DHT22;12544;46.760;15.942;2023-04-21T02:21:24;6.80;99.90
24412;DHT22;12544;46.760;15.942;2023-04-21T02:23:51;6.70;99.90
24412;DHT22;12544;46.760;15.942;2023-04-21T02:26:17;6.80;99.90
24412;DHT22;12544;46.760;15.942;2023-04-21T02:28:42;6.70;99.90
24412;DHT22;12544;46.760;15.942;2023-04-21T02:31:08;6.70;99.90
24412;DHT22;12544;46.760;15.942;2023-04-21T02:33:35;6.70;99.90
24412;DHT22;12544;46.760;15.942;2023-04-21T02:36:00;6.70;99.90
24412;DHT22;12544;46.760;15.942;2023-04-21T02:38:26;6.70;99.90
24412;DHT22;12544;46.760;15.942;2023-04-21T02:40:52;6.60;99.90
24412;DHT22;12544;46.760;15.942;2023-04-21T02:43:30;6.60;99.90
24412;DHT22;12544;46.760;15.942;2023-04-21T02:45:55;6.60;99.90
24412;DHT22;12544;46.760;15.942;2023-04-21T02:48:21;6.60;99.90
24412;DHT22;12544;46.760;15.942;2023-04-21T02:50:50;6.60;99.90
24412;DHT22;12544;46.760;15.942;2023-04-21T02:53:20;6.60;99.90
24412;DHT22;12544;46.760;15.942;2023-04-21T02:55:45;6.60;99.90
24412;DHT22;12544;46.760;15.942;2023-04-21T02:58:11;6.60;99.90
24412;DHT22;12544;46.760;15.942;2023-04-21T03:00:36;6.60;99.90
24412;DHT22;12544;46.760;15.942;2023-04-21T03:03:02;6.70;99.90
24412;DHT22;12544;46.760;15.942;2023-04-21T03:05:28;6.60;99.90
24412;DHT22;12544;46.760;15.942;2023-04-21T03:07:54;6.60;99.90
24412;DHT22;12544;46.760;15.942;2023-04-21T03:10:19;6.70;99.90
24412;DHT22;12544;46.760;15.942;2023-04-21T03:12:45;6.70;99.90
24412;DHT22;12544;46.760;15.942;2023-04-21T03:15:21;6.60;99.90
24412;DHT22;12544;46.760;15.942;2023-04-21T03:17:47;6.60;99.90
24412;DHT22;12544;46.760;15.942;2023-04-21T03:20:12;6.50;99.90
24412;DHT22;12544;46.760;15.942;2023-04-21T03:22:38;6.50;99.90
24412;DHT22;12544;46.760;15.942;2023-04-21T03:25:04;6.50;99.90
24412;DHT22;12544;46.760;15.942;2023-04-21T03:27:31;6.30;99.90
24412;DHT22;12544;46.760;15.942;2023-04-21T03:29:58;6.40;99.90
24412;DHT22;12544;46.760;15.942;2023-04-21T03:32:23;6.30;99.90
24412;DHT22;12544;46.760;15.942;2023-04-21T03:34:49;6.40;99.90
24412;DHT22;12544;46.760;15.942;2023-04-21T03:37:15;6.40;99.90
24412;DHT22;12544;46.760;15.942;2023-04-21T03:39:40;6.40;99.90
24412;DHT22;12544;46.760;15.942;2023-04-21T03:42:06;6.40;99.90
24412;DHT22;12544;46.760;15.942;2023-04-21T03:44:32;6.50;99.90
24412;DHT22;12544;46.760;15.942;2023-04-21T03:46:57;6.50;99.90
24412;DHT22;12544;46.760;15.942;2023-04-21T03:49:23;6.50;99.90
24412;DHT22;12544;46.760;15.942;2023-04-21T03:51:49;6.50;99.90
24412;DHT22;12544;46.760;15.942;2023-04-21T03:54:15;6.40;99.90
24412;DHT22;12544;46.760;15.942;2023-04-21T03:56:40;6.40;99.90
24412;DHT22;12544;46.760;15.942;2023-04-21T03:59:23;6.40;99.90
24412;DHT22;12544;46.760;15.942;2023-04-21T04:01:48;6.30;99.90
24412;DHT22;12544;46.760;15.942;2023-04-21T04:04:14;6.20;99.90
24412;DHT22;12544;46.760;15.942;2023-04-21T04:06:40;6.20;99.90
24412;DHT22;12544;46.760;15.942;2023-04-21T04:09:06;6.20;99.90
24412;DHT22;12544;46.760;15.942;2023-04-21T04:11:33;6.30;99.90
24412;DHT22;12544;46.760;15.942;2023-04-21T04:13:59;6.30;99.90
24412;DHT22;12544;46.760;15.942;2023-04-21T04:16:24;6.40;99.90
24412;DHT22;12544;46.760;15.942;2023-04-21T04:18:50;6.50;99.90
24412;DHT22;12544;46.760;15.942;2023-04-21T04:21:15;6.50;99.90
24412;DHT22;12544;46.760;15.942;2023-04-21T04:23:41;6.50;99.90
24412;DHT22;12544;46.760;15.942;2023-04-21T04:26:07;6.50;99.90
24412;DHT22;12544;46.760;15.942;2023-04-21T04:28:33;6.50;99.90
24412;DHT22;12544;46.760;15.942;2023-04-21T04:31:00;6.50;99.90
24412;DHT22;12544;46.760;15.942;2023-04-21T04:33:26;6.50;99.90
24412;DHT22;12544;46.760;15.942;2023-04-21T04:35:51;6.50;99.90
24412;DHT22;12544;46.760;15.942;2023-04-21T04:38:17;6.50;99.90
24412;DHT22;12544;46.760;15.942;2023-04-21T04:40:43;6.60;99.90
24412;DHT22;12544;46.760;15.942;2023-04-21T04:43:08;6.60;99.90
24412;DHT22;12544;46.760;15.942;2023-04-21T04:45:37;6.60;99.90
24412;DHT22;12544;46.760;15.942;2023-04-21T04:48:03;6.60;99.90
24412;DHT22;12544;46.760;15.942;2023-04-21T04:50:29;6.60;99.90
24412;DHT22;12544;46.760;15.942;2023-04-21T04:52:55;6.50;99.90
24412;DHT22;12544;46.760;15.942;2023-04-21T04:55:21;6.60;99.90
24412;DHT22;12544;46.760;15.942;2023-04-21T04:57:47;6.60;99.90
24412;DHT22;12544;46.760;15.942;2023-04-21T05:00:13;6.60;99.90
24412;DHT22;12544;46.760;15.942;2023-04-21T05:02:39;6.60;99.90
24412;DHT22;12544;46.760;15.942;2023-04-21T05:05:05;6.60;99.90
24412;DHT22;12544;46.760;15.942;2023-04-21T05:07:35;6.70;99.90
24412;DHT22;12544;46.760;15.942;2023-04-21T05:10:01;6.70;99.90
24412;DHT22;12544;46.760;15.942;2023-04-21T05:12:29;6.80;99.90
24412;DHT22;12544;46.760;15.942;2023-04-21T05:14:55;6.80;99.90
24412;DHT22;12544;46.760;15.942;2023-04-21T05:17:26;6.90;99.90
24412;DHT22;12544;46.760;15.942;2023-04-21T05:19:53;6.90;99.90
24412;DHT22;12544;46.760;15.942;2023-04-21T05:22:18;7.00;99.90
24412;DHT22;12544;46.760;15.942;2023-04-21T05:24:44;7.00;99.90
24412;DHT22;12544;46.760;15.942;2023-04-21T05:27:10;7.10;99.90
24412;DHT22;12544;46.760;15.942;2023-04-21T05:29:35;7.10;99.90
24412;DHT22;12544;46.760;15.942;2023-04-21T05:32:01;7.10;99.90
24412;DHT22;12544;46.760;15.942;2023-04-21T05:34:26;7.10;99.90
24412;DHT22;12544;46.760;15.942;2023-04-21T05:36:52;7.20;99.90
24412;DHT22;12544;46.760;15.942;2023-04-21T05:39:18;7.40;99.90
24412;DHT22;12544;46.760;15.942;2023-04-21T05:41:43;7.50;99.90
24412;DHT22;12544;46.760;15.942;2023-04-21T05:44:09;7.60;99.90
24412;DHT22;12544;46.760;15.942;2023-04-21T05:46:34;7.70;99.90
24412;DHT22;12544;46.760;15.942;2023-04-21T05:49:00;7.80;99.90
24412;DHT22;12544;46.760;15.942;2023-04-21T05:51:28;7.90;99.90
24412;DHT22;12544;46.760;15.942;2023-04-21T05:53:54;8.00;99.90
24412;DHT22;12544;46.760;15.942;2023-04-21T05:56:20;8.10;99.90
24412;DHT22;12544;46.760;15.942;2023-04-21T05:58:45;8.20;99.90
24412;DHT22;12544;46.760;15.942;2023-04-21T06:01:12;8.40;99.90
24412;DHT22;12544;46.760;15.942;2023-04-21T06:03:37;8.50;99.90
24412;DHT22;12544;46.760;15.942;2023-04-21T06:06:04;8.70;99.90
24412;DHT22;12544;46.760;15.942;2023-04-21T06:08:30;8.80;99.90
24412;DHT22;12544;46.760;15.942;2023-04-21T06:10:56;8.90;99.90
24412;DHT22;12544;46.760;15.942;2023-04-21T06:13:22;9.10;99.90
24412;DHT22;12544;46.760;15.942;2023-04-21T06:15:47;9.20;99.90
24412;DHT22;12544;46.760;15.942;2023-04-21T06:18:13;9.40;99.90
24412;DHT22;12544;46.760;15.942;2023-04-21T06:20:39;9.50;99.90
24412;DHT22;12544;46.760;15.942;2023-04-21T06:23:07;9.60;99.90
24412;DHT22;12544;46.760;15.942;2023-04-21T06:25:34;9.70;99.90
24412;DHT22;12544;46.760;15.942;2023-04-21T06:27:59;9.70;99.90
24412;DHT22;12544;46.760;15.942;2023-04-21T06:30:25;9.80;99.90
24412;DHT22;12544;46.760;15.942;2023-04-21T06:32:51;9.90;99.90
24412;DHT22;12544;46.760;15.942;2023-04-21T06:35:19;10.00;99.90
24412;DHT22;12544;46.760;15.942;2023-04-21T06:37:45;10.10;99.90
24412;DHT22;12544;46.760;15.942;2023-04-21T06:40:11;10.20;99.90
24412;DHT22;12544;46.760;15.942;2023-04-21T06:42:40;10.40;99.90
24412;DHT22;12544;46.760;15.942;2023-04-21T06:45:06;10.50;99.90
24412;DHT22;12544;46.760;15.942;2023-04-21T06:47:32;10.60;99.90
24412;DHT22;12544;46.760;15.942;2023-04-21T06:49:57;10.80;99.90
24412;DHT22;12544;46.760;15.942;2023-04-21T06:52:23;10.90;99.90
24412;DHT22;12544;46.760;15.942;2023-04-21T06:54:49;11.10;99.90
24412;DHT22;12544;46.760;15.942;2023-04-21T06:57:14;11.30;99.90
24412;DHT22;12544;46.760;15.942;2023-04-21T06:59:41;11.50;99.90
24412;DHT22;12544;46.760;15.942;2023-04-21T07:02:07;11.60;99.90
24412;DHT22;12544;46.760;15.942;2023-04-21T07:04:32;11.80;99.90
24412;DHT22;12544;46.760;15.942;2023-04-21T07:06:58;11.90;99.90
24412;DHT22;12544;46.760;15.942;2023-04-21T07:09:24;12.10;99.90
24412;DHT22;12544;46.760;15.942;2023-04-21T07:11:49;12.20;99.90
24412;DHT22;12544;46.760;15.942;2023-04-21T07:14:15;12.40;99.90
24412;DHT22;12544;46.760;15.942;2023-04-21T07:16:41;12.50;99.90
24412;DHT22;12544;46.760;15.942;2023-04-21T07:19:06;12.70;99.90
24412;DHT22;12544;46.760;15.942;2023-04-21T07:21:32;12.80;99.90
24412;DHT22;12544;46.760;15.942;2023-04-21T07:24:01;13.00;99.90
24412;DHT22;12544;46.760;15.942;2023-04-21T07:26:31;13.20;99.90
24412;DHT22;12544;46.760;15.942;2023-04-21T07:28:58;13.20;99.90
24412;DHT22;12544;46.760;15.942;2023-04-21T07:31:24;13.30;99.90
24412;DHT22;12544;46.760;15.942;2023-04-21T07:33:50;13.30;99.90
24412;DHT22;12544;46.760;15.942;2023-04-21T07:36:16;13.30;99.90
24412;DHT22;12544;46.760;15.942;2023-04-21T07:38:42;13.40;99.90
24412;DHT22;12544;46.760;15.942;2023-04-21T07:41:11;13.50;99.90
24412;DHT22;12544;46.760;15.942;2023-04-21T07:43:38;13.60;99.90
24412;DHT22;12544;46.760;15.942;2023-04-21T07:46:04;13.80;99.90
24412;DHT22;12544;46.760;15.942;2023-04-21T07:48:30;13.90;99.90
24412;DHT22;12544;46.760;15.942;2023-04-21T07:50:55;14.10;99.90
24412;DHT22;12544;46.760;15.942;2023-04-21T07:53:23;14.30;99.90
24412;DHT22;12544;46.760;15.942;2023-04-21T07:55:48;14.40;99.90
24412;DHT22;12544;46.760;15.942;2023-04-21T07:58:14;14.50;99.90
24412;DHT22;12544;46.760;15.942;2023-04-21T08:00:41;14.50;99.90
24412;DHT22;12544;46.760;15.942;2023-04-21T08:03:06;14.40;99.90
24412;DHT22;12544;46.760;15.942;2023-04-21T08:05:32;14.40;99.90
24412;DHT22;12544;46.760;15.942;2023-04-21T08:07:58;14.50;99.90
24412;DHT22;12544;46.760;15.942;2023-04-21T08:10:23;14.70;99.90
24412;DHT22;12544;46.760;15.942;2023-04-21T08:12:49;14.80;99.90
24412;DHT22;12544;46.760;15.942;2023-04-21T08:15:15;15.10;99.90
24412;DHT22;12544;46.760;15.942;2023-04-21T08:17:41;15.30;99.90
24412;DHT22;12544;46.760;15.942;2023-04-21T08:20:07;15.50;99.90
24412;DHT22;12544;46.760;15.942;2023-04-21T08:22:33;15.60;99.90
24412;DHT22;12544;46.760;15.942;2023-04-21T08:25:06;15.80;99.90
24412;DHT22;12544;46.760;15.942;2023-04-21T08:27:32;15.80;99.90
24412;DHT22;12544;46.760;15.942;2023-04-21T08:29:57;15.70;99.90
24412;DHT22;12544;46.760;15.942;2023-04-21T08:32:24;15.70;99.90
24412;DHT22;12544;46.760;15.942;2023-04-21T08:34:51;15.80;99.90
24412;DHT22;12544;46.760;15.942;2023-04-21T08:37:17;16.10;99.90
24412;DHT22;12544;46.760;15.942;2023-04-21T08:39:44;16.40;99.90
24412;DHT22;12544;46.760;15.942;2023-04-21T08:42:12;16.70;99.90
24412;DHT22;12544;46.760;15.942;2023-04-21T08:44:38;17.00;99.90
24412;DHT22;12544;46.760;15.942;2023-04-21T08:47:09;17.20;99.90
24412;DHT22;12544;46.760;15.942;2023-04-21T08:49:37;17.00;99.90
24412;DHT22;12544;46.760;15.942;2023-04-21T08:52:04;17.00;99.90
24412;DHT22;12544;46.760;15.942;2023-04-21T08:54:31;17.20;99.90
24412;DHT22;12544;46.760;15.942;2023-04-21T08:56:57;17.40;99.80
24412;DHT22;12544;46.760;15.942;2023-04-21T08:59:23;17.50;99.90
24412;DHT22;12544;46.760;15.942;2023-04-21T09:02:11;17.50;99.40
24412;DHT22;12544;46.760;15.942;2023-04-21T09:04:39;17.50;99.50
24412;DHT22;12544;46.760;15.942;2023-04-21T09:07:05;17.40;99.60
24412;DHT22;12544;46.760;15.942;2023-04-21T09:09:31;17.20;99.90
24412;DHT22;12544;46.760;15.942;2023-04-21T09:11:57;17.20;99.90
24412;DHT22;12544;46.760;15.942;2023-04-21T09:14:33;17.30;99.90
24412;DHT22;12544;46.760;15.942;2023-04-21T09:17:03;17.50;99.90
24412;DHT22;12544;46.760;15.942;2023-04-21T09:19:29;17.70;99.40
24412;DHT22;12544;46.760;15.942;2023-04-21T09:21:55;18.00;99.90
24412;DHT22;12544;46.760;15.942;2023-04-21T09:24:21;17.90;99.90
24412;DHT22;12544;46.760;15.942;2023-04-21T09:26:51;18.30;98.20
24412;DHT22;12544;46.760;15.942;2023-04-21T09:29:17;18.60;98.30
24412;DHT22;12544;46.760;15.942;2023-04-21T09:31:43;18.70;97.20
24412;DHT22;12544;46.760;15.942;2023-04-21T09:34:20;19.00;97.60
24412;DHT22;12544;46.760;15.942;2023-04-21T09:36:47;19.10;96.60
24412;DHT22;12544;46.760;15.942;2023-04-21T09:39:13;19.00;97.00
24412;DHT22;12544;46.760;15.942;2023-04-21T09:41:39;18.80;97.80
24412;DHT22;12544;46.760;15.942;2023-04-21T09:44:24;18.60;98.70
24412;DHT22;12544;46.760;15.942;2023-04-21T09:46:56;18.20;99.90
24412;DHT22;12544;46.760;15.942;2023-04-21T09:49:25;18.30;98.10
24412;DHT22;12544;46.760;15.942;2023-04-21T09:51:54;18.70;96.50
24412;DHT22;12544;46.760;15.942;2023-04-21T09:54:20;19.10;97.50
24412;DHT22;12544;46.760;15.942;2023-04-21T09:56:53;19.50;96.50
24412;DHT22;12544;46.760;15.942;2023-04-21T09:59:24;19.80;94.70
24412;DHT22;12544;46.760;15.942;2023-04-21T10:01:52;19.80;93.70
24412;DHT22;12544;46.760;15.942;2023-04-21T10:04:19;20.00;94.80
24412;DHT22;12544;46.760;15.942;2023-04-21T10:06:46;19.70;93.50
24412;DHT22;12544;46.760;15.942;2023-04-21T10:09:14;19.40;92.60
24412;DHT22;12544;46.760;15.942;2023-04-21T10:11:40;19.00;94.20
24412;DHT22;12544;46.760;15.942;2023-04-21T10:14:07;19.10;95.10
24412;DHT22;12544;46.760;15.942;2023-04-21T10:16:35;19.30;94.30
24412;DHT22;12544;46.760;15.942;2023-04-21T10:19:25;19.30;94.50
24412;DHT22;12544;46.760;15.942;2023-04-21T10:21:53;19.20;95.40
24412;DHT22;12544;46.760;15.942;2023-04-21T10:24:19;19.20;94.30
24412;DHT22;12544;46.760;15.942;2023-04-21T10:26:45;19.30;94.00
24412;DHT22;12544;46.760;15.942;2023-04-21T10:29:10;19.40;95.40
24412;DHT22;12544;46.760;15.942;2023-04-21T10:31:51;19.30;92.40
24412;DHT22;12544;46.760;15.942;2023-04-21T10:34:20;19.60;93.00
24412;DHT22;12544;46.760;15.942;2023-04-21T10:41:57;19.50;93.20
24412;DHT22;12544;46.760;15.942;2023-04-21T10:47:27;19.50;94.20
24412;DHT22;12544;46.760;15.942;2023-04-21T10:49:57;19.60;96.00
24412;DHT22;12544;46.760;15.942;2023-04-21T10:52:32;19.70;94.50
24412;DHT22;12544;46.760;15.942;2023-04-21T10:57:24;20.10;92.40
24412;DHT22;12544;46.760;15.942;2023-04-21T10:59:49;20.10;90.40
24412;DHT22;12544;46.760;15.942;2023-04-21T11:02:17;20.40;88.80
24412;DHT22;12544;46.760;15.942;2023-04-21T11:04:43;20.50;91.00
24412;DHT22;12544;46.760;15.942;2023-04-21T11:07:33;20.70;89.50
24412;DHT22;12544;46.760;15.942;2023-04-21T11:12:31;21.50;85.60
24412;DHT22;12544;46.760;15.942;2023-04-21T11:14:57;21.30;87.30
24412;DHT22;12544;46.760;15.942;2023-04-21T11:17:23;21.40;84.30
24412;DHT22;12544;46.760;15.942;2023-04-21T11:19:54;21.30;83.50
24412;DHT22;12544;46.760;15.942;2023-04-21T11:22:24;21.50;87.50
24412;DHT22;12544;46.760;15.942;2023-04-21T11:24:53;21.30;88.30
24412;DHT22;12544;46.760;15.942;2023-04-21T11:27:20;21.00;83.50
24412;DHT22;12544;46.760;15.942;2023-04-21T11:29:47;21.00;84.90
24412;DHT22;12544;46.760;15.942;2023-04-21T11:32:20;21.30;84.50
24412;DHT22;12544;46.760;15.942;2023-04-21T11:34:46;21.50;83.70
24412;DHT22;12544;46.760;15.942;2023-04-21T11:37:21;21.70;84.00
24412;DHT22;12544;46.760;15.942;2023-04-21T11:39:47;21.80;83.00
24412;DHT22;12544;46.760;15.942;2023-04-21T11:42:19;21.80;86.00
24412;DHT22;12544;46.760;15.942;2023-04-21T11:44:46;21.40;82.00
24412;DHT22;12544;46.760;15.942;2023-04-21T11:47:19;20.70;84.30
24412;DHT22;12544;46.760;15.942;2023-04-21T11:49:52;20.70;81.80
24412;DHT22;12544;46.760;15.942;2023-04-21T11:54:50;21.30;80.30
24412;DHT22;12544;46.760;15.942;2023-04-21T12:00:37;21.70;79.20
24412;DHT22;12544;46.760;15.942;2023-04-21T12:03:07;21.80;83.50
24412;DHT22;12544;46.760;15.942;2023-04-21T12:05:35;21.90;80.00
24412;DHT22;12544;46.760;15.942;2023-04-21T12:08:01;22.10;82.30
24412;DHT22;12544;46.760;15.942;2023-04-21T12:10:29;22.40;77.30
24412;DHT22;12544;46.760;15.942;2023-04-21T12:12:55;22.50;79.00
24412;DHT22;12544;46.760;15.942;2023-04-21T12:15:21;22.50;76.60
24412;DHT22;12544;46.760;15.942;2023-04-21T12:17:52;22.40;77.50
24412;DHT22;12544;46.760;15.942;2023-04-21T12:20:20;22.30;76.40
24412;DHT22;12544;46.760;15.942;2023-04-21T12:22:46;22.10;79.60
24412;DHT22;12544;46.760;15.942;2023-04-21T12:25:12;21.90;76.60
24412;DHT22;12544;46.760;15.942;2023-04-21T12:28:07;21.50;78.20
24412;DHT22;12544;46.760;15.942;2023-04-21T12:30:32;21.40;80.50
24412;DHT22;12544;46.760;15.942;2023-04-21T12:32:58;21.30;80.60
24412;DHT22;12544;46.760;15.942;2023-04-21T12:35:24;21.10;78.70
24412;DHT22;12544;46.760;15.942;2023-04-21T12:37:50;21.10;79.30
24412;DHT22;12544;46.760;15.942;2023-04-21T12:40:16;21.00;78.10
24412;DHT22;12544;46.760;15.942;2023-04-21T12:42:42;20.80;79.70
24412;DHT22;12544;46.760;15.942;2023-04-21T12:45:08;20.60;79.20
24412;DHT22;12544;46.760;15.942;2023-04-21T12:47:34;20.50;79.60
24412;DHT22;12544;46.760;15.942;2023-04-21T12:50:01;20.40;80.40
24412;DHT22;12544;46.760;15.942;2023-04-21T12:52:26;20.30;81.00
24412;DHT22;12544;46.760;15.942;2023-04-21T12:54:52;20.20;84.30
24412;DHT22;12544;46.760;15.942;2023-04-21T12:57:18;20.00;88.00
24412;DHT22;12544;46.760;15.942;2023-04-21T12:59:44;19.60;90.20
24412;DHT22;12544;46.760;15.942;2023-04-21T13:02:11;19.10;91.10
24412;DHT22;12544;46.760;15.942;2023-04-21T13:04:37;19.10;92.90
24412;DHT22;12544;46.760;15.942;2023-04-21T13:07:03;18.60;92.50
24412;DHT22;12544;46.760;15.942;2023-04-21T13:09:29;18.40;92.40
24412;DHT22;12544;46.760;15.942;2023-04-21T13:11:54;18.40;93.10
24412;DHT22;12544;46.760;15.942;2023-04-21T13:14:20;18.20;93.80
24412;DHT22;12544;46.760;15.942;2023-04-21T13:16:46;18.20;94.30
24412;DHT22;12544;46.760;15.942;2023-04-21T13:19:11;18.20;95.10
24412;DHT22;12544;46.760;15.942;2023-04-21T13:21:37;18.00;95.80
24412;DHT22;12544;46.760;15.942;2023-04-21T13:27:25;17.90;99.50
24412;DHT22;12544;46.760;15.942;2023-04-21T13:29:51;17.90;99.90
24412;DHT22;12544;46.760;15.942;2023-04-21T13:32:18;17.90;99.90
24412;DHT22;12544;46.760;15.942;2023-04-21T13:34:44;17.90;99.90
24412;DHT22;12544;46.760;15.942;2023-04-21T13:37:10;17.80;99.90
24412;DHT22;12544;46.760;15.942;2023-04-21T13:39:39;17.60;99.90
24412;DHT22;12544;46.760;15.942;2023-04-21T13:42:05;17.50;99.90
24412;DHT22;12544;46.760;15.942;2023-04-21T13:44:31;17.50;99.90
24412;DHT22;12544;46.760;15.942;2023-04-21T13:46:56;17.40;99.90
24412;DHT22;12544;46.760;15.942;2023-04-21T13:49:22;17.50;99.90
24412;DHT22;12544;46.760;15.942;2023-04-21T13:51:47;17.40;99.90
24412;DHT22;12544;46.760;15.942;2023-04-21T13:54:13;17.50;99.90
24412;DHT22;12544;46.760;15.942;2023-04-21T13:56:39;17.20;99.90
24412;DHT22;12544;46.760;15.942;2023-04-21T13:59:04;17.10;99.90
24412;DHT22;12544;46.760;15.942;2023-04-21T14:01:30;16.90;99.90
24412;DHT22;12544;46.760;15.942;2023-04-21T14:03:56;17.10;99.90
24412;DHT22;12544;46.760;15.942;2023-04-21T14:06:22;17.40;99.90
24412;DHT22;12544;46.760;15.942;2023-04-21T14:08:47;17.80;99.90
24412;DHT22;12544;46.760;15.942;2023-04-21T14:11:13;17.80;99.90
24412;DHT22;12544;46.760;15.942;2023-04-21T14:13:39;17.60;99.90
24412;DHT22;12544;46.760;15.942;2023-04-21T14:16:05;17.20;99.90
24412;DHT22;12544;46.760;15.942;2023-04-21T14:18:32;16.90;99.90
24412;DHT22;12544;46.760;15.942;2023-04-21T14:20:58;16.80;99.90
24412;DHT22;12544;46.760;15.942;2023-04-21T14:23:23;16.50;99.90
24412;DHT22;12544;46.760;15.942;2023-04-21T14:25:49;16.40;99.90
24412;DHT22;12544;46.760;15.942;2023-04-21T14:31:42;15.80;99.90
24412;DHT22;12544;46.760;15.942;2023-04-21T14:34:08;15.70;99.90
24412;DHT22;12544;46.760;15.942;2023-04-21T14:36:34;15.50;99.90
24412;DHT22;12544;46.760;15.942;2023-04-21T14:39:01;15.40;99.90
24412;DHT22;12544;46.760;15.942;2023-04-21T14:41:26;15.40;99.90
24412;DHT22;12544;46.760;15.942;2023-04-21T14:43:52;15.30;99.90
24412;DHT22;12544;46.760;15.942;2023-04-21T14:46:20;15.30;99.90
24412;DHT22;12544;46.760;15.942;2023-04-21T14:48:46;15.40;99.90
24412;DHT22;12544;46.760;15.942;2023-04-21T14:51:11;15.40;99.90
24412;DHT22;12544;46.760;15.942;2023-04-21T14:53:37;15.40;99.90
24412;DHT22;12544;46.760;15.942;2023-04-21T14:56:05;15.40;99.90
24412;DHT22;12544;46.760;15.942;2023-04-21T14:58:30;15.40;99.90
24412;DHT22;12544;46.760;15.942;2023-04-21T15:00:56;15.40;99.90
24412;DHT22;12544;46.760;15.942;2023-04-21T15:03:22;15.40;99.90
24412;DHT22;12544;46.760;15.942;2023-04-21T15:05:48;15.30;99.90
24412;DHT22;12544;46.760;15.942;2023-04-21T15:08:14;15.40;99.90
24412;DHT22;12544;46.760;15.942;2023-04-21T15:10:43;15.50;99.90
24412;DHT22;12544;46.760;15.942;2023-04-21T15:13:09;15.40;99.90
24412;DHT22;12544;46.760;15.942;2023-04-21T15:15:35;15.50;99.90
24412;DHT22;12544;46.760;15.942;2023-04-21T15:18:01;15.40;99.90
24412;DHT22;12544;46.760;15.942;2023-04-21T15:20:27;15.30;99.90
24412;DHT22;12544;46.760;15.942;2023-04-21T15:22:52;15.30;99.90
24412;DHT22;12544;46.760;15.942;2023-04-21T15:25:18;15.30;99.90
24412;DHT22;12544;46.760;15.942;2023-04-21T15:27:44;15.30;99.90
24412;DHT22;12544;46.760;15.942;2023-04-21T15:30:10;15.20;99.90
24412;DHT22;12544;46.760;15.942;2023-04-21T15:32:36;15.20;99.90
24412;DHT22;12544;46.760;15.942;2023-04-21T15:35:02;15.30;99.90
24412;DHT22;12544;46.760;15.942;2023-04-21T15:37:28;15.40;99.90
24412;DHT22;12544;46.760;15.942;2023-04-21T15:39:53;15.40;99.90
24412;DHT22;12544;46.760;15.942;2023-04-21T15:42:19;15.30;99.90
24412;DHT22;12544;46.760;15.942;2023-04-21T15:44:45;15.10;99.90
24412;DHT22;12544;46.760;15.942;2023-04-21T15:47:11;15.10;99.90